Time;durP1;ratioP1;P1;durP2;ratioP2;P2;SDS_P1;SDS_P2;PMS_P1;PMS_P2;Temp;Humidity;BMP_temperature;BMP_pressure;BME280_temperature;BME280_humidity;BME280_pressure;Samples;Min_cycle;Max_cycle;Signal;HPM_P1;HPM_P2
2022/12/10 00:00:00;;;;;;;4.3;4.2;;;;;;;-1.8;100.0;100640;;;;
2022/12/10 00:01:04;;;;;;;4.3;4.2;;;;;;;-1.9;100.0;100640;;;;
2022/12/10 00:02:00;;;;;;;4.3;4.2;;;;;;;-1.9;100.0;100640;;;;
2022/12/10 00:03:01;;;;;;;4.3;4.2;;;;;;;-1.8;100.0;100640;;;;
2022/12/10 00:04:00;;;;;;;4.3;4.2;;;;;;;-1.8;100.0;100640;;;;
2022/12/10 00:05:00;;;;;;;4.3;4.2;;;;;;;-1.8;100.0;100650;;;;
2022/12/10 00:06:01;;;;;;;4.3;4.2;;;;;;;-1.8;100.0;100650;;;;
2022/12/10 00:07:00;;;;;;;4.3;4.2;;;;;;;-1.8;100.0;100640;;;;
2022/12/10 00:08:00;;;;;;;4.3;4.2;;;;;;;-1.8;100.0;100640;;;;
2022/12/10 00:09:01;;;;;;;4.3;4.2;;;;;;;-1.8;100.0;100650;;;;
2022/12/10 00:10:02;;;;;;;4.3;4.2;;;;;;;-1.8;100.0;100650;;;;
2022/12/10 00:11:02;;;;;;;4.3;4.2;;;;;;;-1.8;100.0;100650;;;;
2022/12/10 00:12:00;;;;;;;4.3;4.2;;;;;;;-1.8;100.0;100650;;;;
2022/12/10 00:13:00;;;;;;;4.3;4.2;;;;;;;-1.9;100.0;100650;;;;
2022/12/10 00:14:00;;;;;;;4.3;4.2;;;;;;;-1.9;100.0;100650;;;;
2022/12/10 00:15:00;;;;;;;4.3;4.2;;;;;;;-1.8;100.0;100650;;;;
2022/12/10 00:16:01;;;;;;;4.2;4.1;;;;;;;-1.8;100.0;100650;;;;
2022/12/10 00:17:00;;;;;;;4.2;4.1;;;;;;;-1.7;100.0;100650;;;;
2022/12/10 00:18:00;;;;;;;4.2;4.1;;;;;;;-1.7;100.0;100650;;;;
2022/12/10 00:19:00;;;;;;;4.2;4.1;;;;;;;-1.7;100.0;100650;;;;
2022/12/10 00:20:00;;;;;;;4.2;4.1;;;;;;;-1.7;100.0;100650;;;;
2022/12/10 00:21:04;;;;;;;4.2;4.1;;;;;;;-1.6;100.0;100650;;;;
2022/12/10 00:22:00;;;;;;;4.2;4.1;;;;;;;-1.6;100.0;100650;;;;
2022/12/10 00:23:00;;;;;;;4.2;4.1;;;;;;;-1.7;100.0;100650;;;;
2022/12/10 00:24:01;;;;;;;4.2;4.1;;;;;;;-1.7;100.0;100650;;;;
2022/12/10 00:25:00;;;;;;;4.2;4.1;;;;;;;-1.7;100.0;100650;;;;
2022/12/10 00:26:03;;;;;;;4.2;4.1;;;;;;;-1.7;100.0;100650;;;;
2022/12/10 00:27:00;;;;;;;4.2;4.1;;;;;;;-1.7;100.0;100650;;;;
2022/12/10 00:28:00;;;;;;;4.2;4.1;;;;;;;-1.7;100.0;100650;;;;
2022/12/10 00:29:01;;;;;;;4.2;4.1;;;;;;;-1.6;100.0;100650;;;;
2022/12/10 00:30:00;;;;;;;4.2;4.1;;;;;;;-1.6;100.0;100650;;;;
2022/12/10 00:31:05;;;;;;;4.2;4.1;;;;;;;-1.6;100.0;100640;;;;
2022/12/10 00:32:00;;;;;;;4.2;4.1;;;;;;;-1.6;100.0;100640;;;;
2022/12/10 00:33:00;;;;;;;4.2;4.1;;;;;;;-1.7;100.0;100640;;;;
2022/12/10 00:34:02;;;;;;;4.2;4.1;;;;;;;-1.7;100.0;100640;;;;
2022/12/10 00:35:00;;;;;;;4.2;4.1;;;;;;;-1.7;100.0;100640;;;;
2022/12/10 00:36:01;;;;;;;4.0;3.9;;;;;;;-1.7;100.0;100640;;;;
2022/12/10 00:37:00;;;;;;;4.0;3.9;;;;;;;-1.7;100.0;100640;;;;
2022/12/10 00:38:00;;;;;;;4.0;3.9;;;;;;;-1.7;100.0;100640;;;;
2022/12/10 00:39:01;;;;;;;4.0;3.9;;;;;;;-1.7;100.0;100650;;;;
2022/12/10 00:40:00;;;;;;;4.0;3.9;;;;;;;-1.7;100.0;100650;;;;
2022/12/10 00:41:00;;;;;;;4.0;3.9;;;;;;;-1.8;100.0;100660;;;;
2022/12/10 00:42:01;;;;;;;4.0;3.9;;;;;;;-1.8;100.0;100660;;;;
2022/12/10 00:43:00;;;;;;;4.0;3.9;;;;;;;-1.7;100.0;100650;;;;
2022/12/10 00:44:00;;;;;;;4.0;3.9;;;;;;;-1.7;100.0;100650;;;;
2022/12/10 00:45:00;;;;;;;4.0;3.9;;;;;;;-1.6;100.0;100650;;;;
2022/12/10 00:46:00;;;;;;;4.0;3.9;;;;;;;-1.6;100.0;100650;;;;
2022/12/10 00:47:00;;;;;;;4.0;3.9;;;;;;;-1.6;100.0;100640;;;;
2022/12/10 00:48:00;;;;;;;4.0;3.9;;;;;;;-1.6;100.0;100640;;;;
2022/12/10 00:49:00;;;;;;;4.0;3.9;;;;;;;-1.6;100.0;100650;;;;
2022/12/10 00:50:00;;;;;;;4.0;3.9;;;;;;;-1.6;100.0;100650;;;;
2022/12/10 00:51:05;;;;;;;4.0;3.9;;;;;;;-1.6;100.0;100660;;;;
2022/12/10 00:52:00;;;;;;;4.0;3.9;;;;;;;-1.6;100.0;100660;;;;
2022/12/10 00:53:00;;;;;;;4.0;3.9;;;;;;;-1.7;100.0;100650;;;;
2022/12/10 00:54:00;;;;;;;4.0;3.9;;;;;;;-1.7;100.0;100650;;;;
2022/12/10 00:55:00;;;;;;;4.0;3.9;;;;;;;-1.6;100.0;100650;;;;
2022/12/10 00:56:01;;;;;;;4.0;3.9;;;;;;;-1.6;100.0;100650;;;;
2022/12/10 00:57:00;;;;;;;4.0;3.9;;;;;;;-1.6;100.0;100640;;;;
2022/12/10 00:58:00;;;;;;;4.0;3.9;;;;;;;-1.6;100.0;100640;;;;
2022/12/10 00:59:01;;;;;;;4.0;3.9;;;;;;;-1.7;100.0;100640;;;;
2022/12/10 01:00:00;;;;;;;4.0;3.9;;;;;;;-1.7;100.0;100640;;;;
2022/12/10 01:01:10;;;;;;;4.0;3.9;;;;;;;-1.7;100.0;100630;;;;
2022/12/10 01:02:00;;;;;;;4.0;3.9;;;;;;;-1.7;100.0;100630;;;;
2022/12/10 01:03:00;;;;;;;4.0;3.9;;;;;;;-1.8;100.0;100640;;;;
2022/12/10 01:04:03;;;;;;;4.0;3.9;;;;;;;-1.8;100.0;100640;;;;
2022/12/10 01:05:00;;;;;;;4.0;3.9;;;;;;;-1.8;100.0;100640;;;;
2022/12/10 01:06:09;;;;;;;4.0;3.9;;;;;;;-1.8;100.0;100640;;;;
2022/12/10 01:07:00;;;;;;;4.0;3.9;;;;;;;-1.8;100.0;100630;;;;
2022/12/10 01:08:00;;;;;;;4.0;3.9;;;;;;;-1.8;100.0;100630;;;;
2022/12/10 01:09:02;;;;;;;4.0;3.9;;;;;;;-1.8;100.0;100630;;;;
2022/12/10 01:10:00;;;;;;;4.0;3.9;;;;;;;-1.8;100.0;100630;;;;
2022/12/10 01:11:00;;;;;;;4.0;3.9;;;;;;;-1.9;100.0;100630;;;;
2022/12/10 01:12:01;;;;;;;4.0;3.9;;;;;;;-1.9;100.0;100630;;;;
2022/12/10 01:13:00;;;;;;;4.0;3.9;;;;;;;-1.9;100.0;100630;;;;
2022/12/10 01:14:01;;;;;;;4.0;3.9;;;;;;;-1.9;100.0;100630;;;;
2022/12/10 01:15:00;;;;;;;4.5;4.4;;;;;;;-1.8;100.0;100630;;;;
2022/12/10 01:16:02;;;;;;;4.5;4.4;;;;;;;-1.8;100.0;100630;;;;
2022/12/10 01:17:02;;;;;;;4.5;4.4;;;;;;;-1.9;100.0;100640;;;;
2022/12/10 01:18:00;;;;;;;4.5;4.4;;;;;;;-1.9;100.0;100640;;;;
2022/12/10 01:19:00;;;;;;;4.5;4.4;;;;;;;-1.9;100.0;100650;;;;
2022/12/10 01:20:00;;;;;;;4.5;4.4;;;;;;;-1.9;100.0;100650;;;;
2022/12/10 01:21:02;;;;;;;4.5;4.4;;;;;;;-1.9;100.0;100650;;;;
2022/12/10 01:22:01;;;;;;;4.5;4.4;;;;;;;-1.9;100.0;100650;;;;
2022/12/10 01:23:00;;;;;;;4.5;4.4;;;;;;;-1.8;100.0;100650;;;;
2022/12/10 01:24:00;;;;;;;4.5;4.4;;;;;;;-1.8;100.0;100650;;;;
2022/12/10 01:25:00;;;;;;;4.5;4.4;;;;;;;-1.8;100.0;100650;;;;
2022/12/10 01:26:05;;;;;;;4.5;4.4;;;;;;;-1.8;100.0;100650;;;;
2022/12/10 01:27:00;;;;;;;4.5;4.4;;;;;;;-1.7;100.0;100650;;;;
2022/12/10 01:28:00;;;;;;;4.5;4.4;;;;;;;-1.7;100.0;100650;;;;
2022/12/10 01:29:01;;;;;;;4.5;4.4;;;;;;;-1.8;100.0;100650;;;;
2022/12/10 01:30:00;;;;;;;4.5;4.4;;;;;;;-1.8;100.0;100650;;;;
2022/12/10 01:31:02;;;;;;;4.5;4.4;;;;;;;-1.8;100.0;100650;;;;
2022/12/10 01:32:00;;;;;;;4.5;4.4;;;;;;;-1.8;100.0;100650;;;;
2022/12/10 01:33:00;;;;;;;4.5;4.4;;;;;;;-1.8;100.0;100650;;;;
2022/12/10 01:34:01;;;;;;;4.5;4.4;;;;;;;-1.8;100.0;100650;;;;
2022/12/10 01:35:00;;;;;;;4.7;4.6;;;;;;;-1.8;100.0;100650;;;;
2022/12/10 01:36:09;;;;;;;4.7;4.6;;;;;;;-1.8;100.0;100650;;;;
2022/12/10 01:37:00;;;;;;;4.7;4.6;;;;;;;-1.8;100.0;100650;;;;
2022/12/10 01:38:00;;;;;;;4.7;4.6;;;;;;;-1.8;100.0;100650;;;;
2022/12/10 01:39:01;;;;;;;4.7;4.6;;;;;;;-1.7;100.0;100640;;;;
2022/12/10 01:40:00;;;;;;;4.7;4.6;;;;;;;-1.7;100.0;100640;;;;
2022/12/10 01:41:00;;;;;;;4.7;4.6;;;;;;;-1.8;100.0;100650;;;;
2022/12/10 01:42:00;;;;;;;4.7;4.6;;;;;;;-1.8;100.0;100650;;;;
2022/12/10 01:43:00;;;;;;;4.7;4.6;;;;;;;-1.7;100.0;100650;;;;
2022/12/10 01:44:08;;;;;;;4.7;4.6;;;;;;;-1.7;100.0;100650;;;;
2022/12/10 01:45:03;;;;;;;4.7;4.6;;;;;;;-1.7;100.0;100650;;;;
2022/12/10 01:46:00;;;;;;;4.7;4.6;;;;;;;-1.7;100.0;100650;;;;
2022/12/10 01:47:00;;;;;;;4.7;4.6;;;;;;;-1.7;100.0;100650;;;;
2022/12/10 01:48:08;;;;;;;4.7;4.6;;;;;;;-1.7;100.0;100650;;;;
2022/12/10 01:49:01;;;;;;;4.7;4.6;;;;;;;-1.6;100.0;100650;;;;
2022/12/10 01:50:00;;;;;;;4.7;4.6;;;;;;;-1.6;100.0;100650;;;;
2022/12/10 01:51:00;;;;;;;4.7;4.6;;;;;;;-1.6;100.0;100660;;;;
2022/12/10 01:52:00;;;;;;;4.7;4.6;;;;;;;-1.6;100.0;100660;;;;
2022/12/10 01:53:00;;;;;;;4.7;4.6;;;;;;;-1.7;100.0;100660;;;;
2022/12/10 01:54:01;;;;;;;4.7;4.6;;;;;;;-1.7;100.0;100660;;;;
2022/12/10 01:55:00;;;;;;;4.5;4.3;;;;;;;-1.7;100.0;100670;;;;
2022/12/10 01:56:00;;;;;;;4.5;4.3;;;;;;;-1.7;100.0;100670;;;;
2022/12/10 01:57:04;;;;;;;4.5;4.3;;;;;;;-1.8;100.0;100670;;;;
2022/12/10 01:58:00;;;;;;;4.5;4.3;;;;;;;-1.8;100.0;100670;;;;
2022/12/10 01:59:00;;;;;;;4.5;4.3;;;;;;;-1.7;100.0;100670;;;;
2022/12/10 02:00:03;;;;;;;4.5;4.3;;;;;;;-1.7;100.0;100670;;;;
2022/12/10 02:01:10;;;;;;;4.5;4.3;;;;;;;-1.7;100.0;100670;;;;
2022/12/10 02:02:04;;;;;;;4.5;4.3;;;;;;;-1.7;100.0;100670;;;;
2022/12/10 02:03:07;;;;;;;4.5;4.3;;;;;;;-1.8;100.0;100670;;;;
2022/12/10 02:04:06;;;;;;;4.5;4.3;;;;;;;-1.8;100.0;100670;;;;
2022/12/10 02:05:03;;;;;;;4.5;4.3;;;;;;;-1.8;100.0;100660;;;;
2022/12/10 02:06:06;;;;;;;4.5;4.3;;;;;;;-1.8;100.0;100660;;;;
2022/12/10 02:07:06;;;;;;;4.5;4.3;;;;;;;-1.9;100.0;100660;;;;
2022/12/10 02:08:00;;;;;;;4.5;4.3;;;;;;;-1.9;100.0;100660;;;;
2022/12/10 02:09:06;;;;;;;4.5;4.3;;;;;;;-1.8;100.0;100660;;;;
2022/12/10 02:10:09;;;;;;;4.5;4.3;;;;;;;-1.8;100.0;100660;;;;
2022/12/10 02:11:08;;;;;;;4.5;4.3;;;;;;;-1.8;100.0;100670;;;;
2022/12/10 02:12:05;;;;;;;4.5;4.3;;;;;;;-1.8;100.0;100670;;;;
2022/12/10 02:13:05;;;;;;;4.5;4.3;;;;;;;-1.8;100.0;100670;;;;
2022/12/10 02:14:07;;;;;;;4.5;4.3;;;;;;;-1.8;100.0;100670;;;;
2022/12/10 02:15:10;;;;;;;4.3;4.2;;;;;;;-1.8;100.0;100670;;;;
2022/12/10 02:16:04;;;;;;;4.3;4.2;;;;;;;-1.8;100.0;100670;;;;
2022/12/10 02:17:04;;;;;;;4.3;4.2;;;;;;;-1.8;100.0;100670;;;;
2022/12/10 02:18:07;;;;;;;4.3;4.2;;;;;;;-1.8;100.0;100670;;;;
2022/12/10 02:19:08;;;;;;;4.3;4.2;;;;;;;-1.8;100.0;100670;;;;
2022/12/10 02:20:11;;;;;;;4.3;4.2;;;;;;;-1.8;100.0;100670;;;;
2022/12/10 02:21:03;;;;;;;4.3;4.2;;;;;;;-1.7;100.0;100660;;;;
2022/12/10 02:22:01;;;;;;;4.3;4.2;;;;;;;-1.7;100.0;100660;;;;
2022/12/10 02:23:05;;;;;;;4.3;4.2;;;;;;;-1.7;100.0;100670;;;;
2022/12/10 02:24:03;;;;;;;4.3;4.2;;;;;;;-1.7;100.0;100670;;;;
2022/12/10 02:25:01;;;;;;;4.3;4.2;;;;;;;-1.7;100.0;100670;;;;
2022/12/10 02:26:06;;;;;;;4.3;4.2;;;;;;;-1.7;100.0;100670;;;;
2022/12/10 02:27:10;;;;;;;4.3;4.2;;;;;;;-1.6;100.0;100660;;;;
2022/12/10 02:28:10;;;;;;;4.3;4.2;;;;;;;-1.6;100.0;100660;;;;
2022/12/10 02:29:04;;;;;;;4.3;4.2;;;;;;;-1.6;100.0;100660;;;;
2022/12/10 02:30:01;;;;;;;4.3;4.2;;;;;;;-1.6;100.0;100660;;;;
2022/12/10 02:31:01;;;;;;;4.3;4.2;;;;;;;-1.6;100.0;100660;;;;
2022/12/10 02:32:06;;;;;;;4.3;4.2;;;;;;;-1.6;100.0;100660;;;;
2022/12/10 02:33:02;;;;;;;4.3;4.2;;;;;;;-1.5;100.0;100660;;;;
2022/12/10 02:34:04;;;;;;;4.3;4.2;;;;;;;-1.5;100.0;100660;;;;
2022/12/10 02:35:08;;;;;;;4.3;4.2;;;;;;;-1.6;100.0;100660;;;;
2022/12/10 02:36:02;;;;;;;4.3;4.2;;;;;;;-1.6;100.0;100660;;;;
2022/12/10 02:37:04;;;;;;;4.3;4.2;;;;;;;-1.6;100.0;100660;;;;
2022/12/10 02:38:06;;;;;;;4.3;4.2;;;;;;;-1.6;100.0;100660;;;;
2022/12/10 02:39:02;;;;;;;4.3;4.2;;;;;;;-1.6;100.0;100660;;;;
2022/12/10 02:40:04;;;;;;;4.3;4.2;;;;;;;-1.6;100.0;100660;;;;
2022/12/10 02:41:04;;;;;;;4.3;4.2;;;;;;;-1.5;100.0;100660;;;;
2022/12/10 02:42:02;;;;;;;4.3;4.2;;;;;;;-1.5;100.0;100660;;;;
2022/12/10 02:43:00;;;;;;;4.3;4.2;;;;;;;-1.5;100.0;100660;;;;
2022/12/10 02:44:02;;;;;;;4.3;4.2;;;;;;;-1.5;100.0;100660;;;;
2022/12/10 02:45:01;;;;;;;4.3;4.2;;;;;;;-1.6;100.0;100660;;;;
2022/12/10 02:46:02;;;;;;;4.3;4.2;;;;;;;-1.6;100.0;100660;;;;
2022/12/10 02:47:01;;;;;;;4.3;4.2;;;;;;;-1.5;100.0;100660;;;;
2022/12/10 02:48:02;;;;;;;4.3;4.2;;;;;;;-1.5;100.0;100660;;;;
2022/12/10 02:49:01;;;;;;;4.3;4.2;;;;;;;-1.5;100.0;100660;;;;
2022/12/10 02:50:01;;;;;;;4.3;4.2;;;;;;;-1.5;100.0;100660;;;;
2022/12/10 02:51:00;;;;;;;4.3;4.2;;;;;;;-1.6;100.0;100660;;;;
2022/12/10 02:52:06;;;;;;;4.3;4.2;;;;;;;-1.6;100.0;100660;;;;
2022/12/10 02:53:00;;;;;;;4.3;4.2;;;;;;;-1.5;100.0;100660;;;;
2022/12/10 02:54:02;;;;;;;4.3;4.2;;;;;;;-1.5;100.0;100660;;;;
2022/12/10 02:55:00;;;;;;;5.2;5.0;;;;;;;-1.5;100.0;100660;;;;
2022/12/10 02:56:10;;;;;;;5.2;5.0;;;;;;;-1.5;100.0;100660;;;;
2022/12/10 02:57:03;;;;;;;5.2;5.0;;;;;;;-1.5;100.0;100660;;;;
2022/12/10 02:58:10;;;;;;;5.2;5.0;;;;;;;-1.5;100.0;100660;;;;
2022/12/10 02:59:03;;;;;;;5.2;5.0;;;;;;;-1.5;100.0;100660;;;;
2022/12/10 03:00:06;;;;;;;5.2;5.0;;;;;;;-1.5;100.0;100660;;;;
2022/12/10 03:01:07;;;;;;;5.2;5.0;;;;;;;-1.6;100.0;100660;;;;
2022/12/10 03:02:10;;;;;;;5.2;5.0;;;;;;;-1.6;100.0;100660;;;;
2022/12/10 03:03:10;;;;;;;5.2;5.0;;;;;;;-1.5;100.0;100660;;;;
2022/12/10 03:04:05;;;;;;;5.2;5.0;;;;;;;-1.5;100.0;100660;;;;
2022/12/10 03:05:04;;;;;;;5.2;5.0;;;;;;;-1.5;100.0;100660;;;;
2022/12/10 03:06:11;;;;;;;5.2;5.0;;;;;;;-1.5;100.0;100660;;;;
2022/12/10 03:07:02;;;;;;;5.2;5.0;;;;;;;-1.5;100.0;100660;;;;
2022/12/10 03:08:06;;;;;;;5.2;5.0;;;;;;;-1.5;100.0;100660;;;;
2022/12/10 03:09:04;;;;;;;5.2;5.0;;;;;;;-1.5;100.0;100660;;;;
2022/12/10 03:10:06;;;;;;;5.2;5.0;;;;;;;-1.5;100.0;100660;;;;
2022/12/10 03:11:08;;;;;;;5.2;5.0;;;;;;;-1.6;100.0;100660;;;;
2022/12/10 03:12:06;;;;;;;5.2;5.0;;;;;;;-1.6;100.0;100660;;;;
2022/12/10 03:13:03;;;;;;;5.2;5.0;;;;;;;-1.6;100.0;100670;;;;
2022/12/10 03:14:04;;;;;;;5.2;5.0;;;;;;;-1.6;100.0;100670;;;;
2022/12/10 03:15:02;;;;;;;5.1;4.9;;;;;;;-1.6;100.0;100670;;;;
2022/12/10 03:16:02;;;;;;;5.1;4.9;;;;;;;-1.6;100.0;100670;;;;
2022/12/10 03:17:01;;;;;;;5.1;4.9;;;;;;;-1.6;100.0;100660;;;;
2022/12/10 03:18:02;;;;;;;5.1;4.9;;;;;;;-1.6;100.0;100660;;;;
2022/12/10 03:19:03;;;;;;;5.1;4.9;;;;;;;-1.5;100.0;100660;;;;
2022/12/10 03:20:02;;;;;;;5.1;4.9;;;;;;;-1.5;100.0;100660;;;;
2022/12/10 03:21:03;;;;;;;5.1;4.9;;;;;;;-1.5;100.0;100660;;;;
2022/12/10 03:22:02;;;;;;;5.1;4.9;;;;;;;-1.5;100.0;100660;;;;
2022/12/10 03:23:01;;;;;;;5.1;4.9;;;;;;;-1.5;100.0;100660;;;;
2022/12/10 03:24:00;;;;;;;5.1;4.9;;;;;;;-1.5;100.0;100660;;;;
2022/12/10 03:25:00;;;;;;;5.1;4.9;;;;;;;-1.5;100.0;100670;;;;
2022/12/10 03:26:02;;;;;;;5.1;4.9;;;;;;;-1.5;100.0;100670;;;;
2022/12/10 03:27:03;;;;;;;5.1;4.9;;;;;;;-1.5;100.0;100670;;;;
2022/12/10 03:28:00;;;;;;;5.1;4.9;;;;;;;-1.5;100.0;100670;;;;
2022/12/10 03:29:03;;;;;;;5.1;4.9;;;;;;;-1.5;100.0;100660;;;;
2022/12/10 03:30:00;;;;;;;5.1;4.9;;;;;;;-1.5;100.0;100660;;;;
2022/12/10 03:31:01;;;;;;;5.1;4.9;;;;;;;-1.6;100.0;100660;;;;
2022/12/10 03:32:01;;;;;;;5.1;4.9;;;;;;;-1.6;100.0;100660;;;;
2022/12/10 03:33:01;;;;;;;5.1;4.9;;;;;;;-1.6;100.0;100660;;;;
2022/12/10 03:34:01;;;;;;;5.1;4.9;;;;;;;-1.6;100.0;100660;;;;
2022/12/10 03:35:01;;;;;;;4.1;4.0;;;;;;;-1.6;100.0;100670;;;;
2022/12/10 03:36:00;;;;;;;4.1;4.0;;;;;;;-1.6;100.0;100670;;;;
2022/12/10 03:37:01;;;;;;;4.1;4.0;;;;;;;-1.6;100.0;100670;;;;
2022/12/10 03:38:01;;;;;;;4.1;4.0;;;;;;;-1.6;100.0;100670;;;;
2022/12/10 03:39:00;;;;;;;4.1;4.0;;;;;;;-1.6;100.0;100670;;;;
2022/12/10 03:40:01;;;;;;;4.1;4.0;;;;;;;-1.6;100.0;100670;;;;
2022/12/10 03:41:00;;;;;;;4.1;4.0;;;;;;;-1.7;100.0;100670;;;;
2022/12/10 03:42:00;;;;;;;4.1;4.0;;;;;;;-1.7;100.0;100670;;;;
2022/12/10 03:43:00;;;;;;;4.1;4.0;;;;;;;-1.7;100.0;100670;;;;
2022/12/10 03:44:00;;;;;;;4.1;4.0;;;;;;;-1.7;100.0;100670;;;;
2022/12/10 03:45:00;;;;;;;4.1;4.0;;;;;;;-1.6;100.0;100670;;;;
2022/12/10 03:46:01;;;;;;;4.1;4.0;;;;;;;-1.6;100.0;100670;;;;
2022/12/10 03:47:01;;;;;;;4.1;4.0;;;;;;;-1.7;100.0;100670;;;;
2022/12/10 03:48:00;;;;;;;4.1;4.0;;;;;;;-1.7;100.0;100670;;;;
2022/12/10 03:49:01;;;;;;;4.1;4.0;;;;;;;-1.7;100.0;100670;;;;
2022/12/10 03:50:00;;;;;;;4.1;4.0;;;;;;;-1.7;100.0;100670;;;;
2022/12/10 03:51:00;;;;;;;4.1;4.0;;;;;;;-1.7;100.0;100670;;;;
2022/12/10 03:52:00;;;;;;;4.1;4.0;;;;;;;-1.7;100.0;100670;;;;
2022/12/10 03:53:00;;;;;;;4.1;4.0;;;;;;;-1.7;100.0;100670;;;;
2022/12/10 03:54:00;;;;;;;4.1;4.0;;;;;;;-1.7;100.0;100670;;;;
2022/12/10 03:55:01;;;;;;;4.8;4.7;;;;;;;-1.7;100.0;100680;;;;
2022/12/10 03:56:00;;;;;;;4.8;4.7;;;;;;;-1.7;100.0;100680;;;;
2022/12/10 03:57:00;;;;;;;4.8;4.7;;;;;;;-1.7;100.0;100670;;;;
2022/12/10 03:58:00;;;;;;;4.8;4.7;;;;;;;-1.7;100.0;100670;;;;
2022/12/10 03:59:00;;;;;;;4.8;4.7;;;;;;;-1.7;100.0;100670;;;;
2022/12/10 04:00:00;;;;;;;4.8;4.7;;;;;;;-1.7;100.0;100670;;;;
2022/12/10 04:01:00;;;;;;;4.8;4.7;;;;;;;-1.7;100.0;100670;;;;
2022/12/10 04:02:00;;;;;;;4.8;4.7;;;;;;;-1.7;100.0;100670;;;;
2022/12/10 04:03:00;;;;;;;4.8;4.7;;;;;;;-1.7;100.0;100670;;;;
2022/12/10 04:04:00;;;;;;;4.8;4.7;;;;;;;-1.7;100.0;100670;;;;
2022/12/10 04:05:00;;;;;;;4.8;4.7;;;;;;;-1.7;100.0;100670;;;;
2022/12/10 04:06:02;;;;;;;4.8;4.7;;;;;;;-1.7;100.0;100670;;;;
2022/12/10 04:07:00;;;;;;;4.8;4.7;;;;;;;-1.7;100.0;100680;;;;
2022/12/10 04:08:00;;;;;;;4.8;4.7;;;;;;;-1.7;100.0;100680;;;;
2022/12/10 04:09:00;;;;;;;4.8;4.7;;;;;;;-1.6;100.0;100680;;;;
2022/12/10 04:10:01;;;;;;;4.8;4.7;;;;;;;-1.6;100.0;100680;;;;
2022/12/10 04:11:03;;;;;;;4.8;4.7;;;;;;;-1.7;100.0;100680;;;;
2022/12/10 04:12:01;;;;;;;4.8;4.7;;;;;;;-1.7;100.0;100680;;;;
2022/12/10 04:17:00;;;;;;;4.1;4.0;;;;;;;-1.7;100.0;100690;;;;
2022/12/10 04:18:00;;;;;;;4.1;4.0;;;;;;;-1.7;100.0;100690;;;;
2022/12/10 04:19:03;;;;;;;4.1;4.0;;;;;;;-1.8;100.0;100700;;;;
2022/12/10 04:20:00;;;;;;;4.1;4.0;;;;;;;-1.8;100.0;100700;;;;
2022/12/10 04:27:04;;;;;;;4.1;4.0;;;;;;;-1.6;100.0;100700;;;;
2022/12/10 04:28:00;;;;;;;4.1;4.0;;;;;;;-1.6;100.0;100700;;;;
2022/12/10 04:29:00;;;;;;;4.1;4.0;;;;;;;-1.7;100.0;100700;;;;
2022/12/10 04:30:00;;;;;;;4.1;4.0;;;;;;;-1.7;100.0;100700;;;;
2022/12/10 04:31:00;;;;;;;4.1;4.0;;;;;;;-1.8;100.0;100690;;;;
2022/12/10 04:32:00;;;;;;;4.1;4.0;;;;;;;-1.8;100.0;100690;;;;
2022/12/10 04:33:00;;;;;;;4.1;4.0;;;;;;;-1.6;100.0;100690;;;;
2022/12/10 04:34:00;;;;;;;4.7;4.6;;;;;;;-1.6;100.0;100690;;;;
2022/12/10 04:35:00;;;;;;;4.7;4.6;;;;;;;-1.6;100.0;100700;;;;
2022/12/10 04:36:00;;;;;;;4.7;4.6;;;;;;;-1.6;100.0;100700;;;;
2022/12/10 04:37:01;;;;;;;4.7;4.6;;;;;;;-1.5;100.0;100700;;;;
2022/12/10 04:38:00;;;;;;;4.7;4.6;;;;;;;-1.5;100.0;100700;;;;
2022/12/10 04:39:00;;;;;;;4.7;4.6;;;;;;;-1.4;100.0;100690;;;;
2022/12/10 04:40:00;;;;;;;4.7;4.6;;;;;;;-1.4;100.0;100690;;;;
2022/12/10 04:41:00;;;;;;;4.7;4.6;;;;;;;-1.4;100.0;100690;;;;
2022/12/10 04:42:00;;;;;;;4.7;4.6;;;;;;;-1.4;100.0;100690;;;;
2022/12/10 04:43:00;;;;;;;4.7;4.6;;;;;;;-1.5;100.0;100690;;;;
2022/12/10 04:44:00;;;;;;;4.7;4.6;;;;;;;-1.5;100.0;100690;;;;
2022/12/10 04:45:00;;;;;;;4.7;4.6;;;;;;;-1.5;100.0;100690;;;;
2022/12/10 04:46:00;;;;;;;4.7;4.6;;;;;;;-1.5;100.0;100690;;;;
2022/12/10 04:47:00;;;;;;;4.7;4.6;;;;;;;-1.4;100.0;100700;;;;
2022/12/10 04:48:00;;;;;;;4.7;4.6;;;;;;;-1.4;100.0;100700;;;;
2022/12/10 04:49:01;;;;;;;4.7;4.6;;;;;;;-1.5;100.0;100700;;;;
2022/12/10 04:50:00;;;;;;;4.7;4.6;;;;;;;-1.5;100.0;100700;;;;
2022/12/10 04:51:00;;;;;;;4.7;4.6;;;;;;;-1.5;100.0;100700;;;;
2022/12/10 04:52:00;;;;;;;4.7;4.6;;;;;;;-1.5;100.0;100700;;;;
2022/12/10 04:53:00;;;;;;;4.7;4.6;;;;;;;-1.5;100.0;100690;;;;
2022/12/10 04:54:01;;;;;;;4.1;4.0;;;;;;;-1.5;100.0;100690;;;;
2022/12/10 04:55:00;;;;;;;4.1;4.0;;;;;;;-1.4;100.0;100700;;;;
2022/12/10 04:56:01;;;;;;;4.1;4.0;;;;;;;-1.4;100.0;100700;;;;
2022/12/10 04:57:00;;;;;;;4.1;4.0;;;;;;;-1.5;100.0;100700;;;;
2022/12/10 04:58:00;;;;;;;4.1;4.0;;;;;;;-1.5;100.0;100700;;;;
2022/12/10 04:59:00;;;;;;;4.1;4.0;;;;;;;-1.5;100.0;100690;;;;
2022/12/10 05:00:00;;;;;;;4.1;4.0;;;;;;;-1.5;100.0;100690;;;;
2022/12/10 05:01:02;;;;;;;4.1;4.0;;;;;;;-1.4;100.0;100700;;;;
2022/12/10 05:02:00;;;;;;;4.1;4.0;;;;;;;-1.4;100.0;100700;;;;
2022/12/10 05:03:00;;;;;;;4.1;4.0;;;;;;;-1.4;100.0;100700;;;;
2022/12/10 05:04:02;;;;;;;4.1;4.0;;;;;;;-1.4;100.0;100700;;;;
2022/12/10 05:05:00;;;;;;;4.1;4.0;;;;;;;-1.5;100.0;100700;;;;
2022/12/10 05:06:01;;;;;;;4.1;4.0;;;;;;;-1.5;100.0;100700;;;;
2022/12/10 05:07:00;;;;;;;4.1;4.0;;;;;;;-1.5;100.0;100700;;;;
2022/12/10 05:08:01;;;;;;;4.1;4.0;;;;;;;-1.5;100.0;100700;;;;
2022/12/10 05:09:00;;;;;;;4.1;4.0;;;;;;;-1.5;100.0;100700;;;;
2022/12/10 05:10:00;;;;;;;4.1;4.0;;;;;;;-1.5;100.0;100700;;;;
2022/12/10 05:11:02;;;;;;;4.1;4.0;;;;;;;-1.4;100.0;100700;;;;
2022/12/10 05:12:00;;;;;;;4.1;4.0;;;;;;;-1.4;100.0;100700;;;;
2022/12/10 05:13:00;;;;;;;4.1;4.0;;;;;;;-1.5;100.0;100700;;;;
2022/12/10 05:14:00;;;;;;;4.8;4.7;;;;;;;-1.5;100.0;100700;;;;
2022/12/10 05:15:00;;;;;;;4.8;4.7;;;;;;;-1.5;100.0;100700;;;;
2022/12/10 05:16:01;;;;;;;4.8;4.7;;;;;;;-1.5;100.0;100700;;;;
2022/12/10 05:17:00;;;;;;;4.8;4.7;;;;;;;-1.4;100.0;100700;;;;
2022/12/10 05:18:00;;;;;;;4.8;4.7;;;;;;;-1.4;100.0;100700;;;;
2022/12/10 05:19:00;;;;;;;4.8;4.7;;;;;;;-1.3;100.0;100710;;;;
2022/12/10 05:20:00;;;;;;;4.8;4.7;;;;;;;-1.3;100.0;100710;;;;
2022/12/10 05:21:01;;;;;;;4.8;4.7;;;;;;;-1.4;100.0;100700;;;;
2022/12/10 05:24:00;;;;;;;4.8;4.7;;;;;;;-1.2;100.0;100700;;;;
2022/12/10 05:25:00;;;;;;;4.8;4.7;;;;;;;-1.3;100.0;100700;;;;
2022/12/10 05:26:02;;;;;;;4.8;4.7;;;;;;;-1.3;100.0;100700;;;;
2022/12/10 05:27:00;;;;;;;4.8;4.7;;;;;;;-1.2;100.0;100700;;;;
2022/12/10 05:28:00;;;;;;;4.8;4.7;;;;;;;-1.2;100.0;100700;;;;
2022/12/10 05:29:00;;;;;;;4.8;4.7;;;;;;;-1.2;100.0;100700;;;;
2022/12/10 05:30:00;;;;;;;4.8;4.7;;;;;;;-1.2;100.0;100700;;;;
2022/12/10 05:31:01;;;;;;;4.8;4.7;;;;;;;-1.2;100.0;100700;;;;
2022/12/10 05:32:01;;;;;;;4.8;4.7;;;;;;;-1.2;100.0;100700;;;;
2022/12/10 05:33:00;;;;;;;4.8;4.7;;;;;;;-1.2;100.0;100700;;;;
2022/12/10 05:34:00;;;;;;;4.4;4.3;;;;;;;-1.2;100.0;100700;;;;
2022/12/10 05:35:00;;;;;;;4.4;4.3;;;;;;;-1.1;100.0;100700;;;;
2022/12/10 05:36:02;;;;;;;4.4;4.3;;;;;;;-1.1;100.0;100700;;;;
2022/12/10 05:37:00;;;;;;;4.4;4.3;;;;;;;-1.3;100.0;100700;;;;
2022/12/10 05:38:00;;;;;;;4.4;4.3;;;;;;;-1.3;100.0;100700;;;;
2022/12/10 05:39:00;;;;;;;4.4;4.3;;;;;;;-1.2;100.0;100700;;;;
2022/12/10 05:40:00;;;;;;;4.4;4.3;;;;;;;-1.2;100.0;100700;;;;
2022/12/10 05:41:02;;;;;;;4.4;4.3;;;;;;;-1.2;100.0;100710;;;;
2022/12/10 05:42:00;;;;;;;4.4;4.3;;;;;;;-1.2;100.0;100710;;;;
2022/12/10 05:43:00;;;;;;;4.4;4.3;;;;;;;-1.3;100.0;100710;;;;
2022/12/10 05:44:00;;;;;;;4.4;4.3;;;;;;;-1.3;100.0;100710;;;;
2022/12/10 05:45:00;;;;;;;4.4;4.3;;;;;;;-1.3;100.0;100710;;;;
2022/12/10 05:46:01;;;;;;;4.4;4.3;;;;;;;-1.3;100.0;100710;;;;
2022/12/10 05:47:00;;;;;;;4.4;4.3;;;;;;;-1.2;100.0;100710;;;;
2022/12/10 05:48:00;;;;;;;4.4;4.3;;;;;;;-1.2;100.0;100710;;;;
2022/12/10 05:49:02;;;;;;;4.4;4.3;;;;;;;-1.2;100.0;100710;;;;
2022/12/10 05:50:00;;;;;;;4.4;4.3;;;;;;;-1.2;100.0;100710;;;;
2022/12/10 05:51:04;;;;;;;4.4;4.3;;;;;;;-1.2;100.0;100710;;;;
2022/12/10 05:52:00;;;;;;;4.4;4.3;;;;;;;-1.2;100.0;100710;;;;
2022/12/10 05:53:00;;;;;;;4.4;4.3;;;;;;;-1.1;100.0;100700;;;;
2022/12/10 05:54:03;;;;;;;3.8;3.7;;;;;;;-1.1;100.0;100700;;;;
2022/12/10 05:55:00;;;;;;;3.8;3.7;;;;;;;-1.1;100.0;100700;;;;
2022/12/10 05:56:01;;;;;;;3.8;3.7;;;;;;;-1.1;100.0;100700;;;;
2022/12/10 05:57:00;;;;;;;3.8;3.7;;;;;;;-1.1;100.0;100710;;;;
2022/12/10 05:58:00;;;;;;;3.8;3.7;;;;;;;-1.1;100.0;100710;;;;
2022/12/10 05:59:01;;;;;;;3.8;3.7;;;;;;;-1.3;100.0;100710;;;;
2022/12/10 06:00:00;;;;;;;3.8;3.7;;;;;;;-1.3;100.0;100710;;;;
2022/12/10 06:01:05;;;;;;;3.8;3.7;;;;;;;-1.2;100.0;100700;;;;
2022/12/10 06:02:00;;;;;;;3.8;3.7;;;;;;;-1.2;100.0;100700;;;;
2022/12/10 06:03:00;;;;;;;3.8;3.7;;;;;;;-1.1;100.0;100700;;;;
2022/12/10 06:04:01;;;;;;;3.8;3.7;;;;;;;-1.1;100.0;100700;;;;
2022/12/10 06:05:00;;;;;;;3.8;3.7;;;;;;;-1.2;100.0;100700;;;;
2022/12/10 06:06:00;;;;;;;3.8;3.7;;;;;;;-1.2;100.0;100700;;;;
2022/12/10 06:07:00;;;;;;;3.8;3.7;;;;;;;-1.1;100.0;100700;;;;
2022/12/10 06:08:00;;;;;;;3.8;3.7;;;;;;;-1.1;100.0;100700;;;;
2022/12/10 06:09:00;;;;;;;3.8;3.7;;;;;;;-1.2;100.0;100710;;;;
2022/12/10 06:10:00;;;;;;;3.8;3.7;;;;;;;-1.2;100.0;100710;;;;
2022/12/10 06:11:01;;;;;;;3.8;3.7;;;;;;;-1.1;100.0;100700;;;;
2022/12/10 06:12:00;;;;;;;3.8;3.7;;;;;;;-1.1;100.0;100700;;;;
2022/12/10 06:13:01;;;;;;;3.8;3.7;;;;;;;-1.1;100.0;100700;;;;
2022/12/10 06:14:01;;;;;;;3.9;3.8;;;;;;;-1.1;100.0;100700;;;;
2022/12/10 06:15:00;;;;;;;3.9;3.8;;;;;;;-1.1;100.0;100700;;;;
2022/12/10 06:16:05;;;;;;;3.9;3.8;;;;;;;-1.1;100.0;100700;;;;
2022/12/10 06:17:00;;;;;;;3.9;3.8;;;;;;;-1.1;100.0;100700;;;;
2022/12/10 06:18:00;;;;;;;3.9;3.8;;;;;;;-1.1;100.0;100700;;;;
2022/12/10 06:19:00;;;;;;;3.9;3.8;;;;;;;-1.1;100.0;100700;;;;
2022/12/10 06:20:00;;;;;;;3.9;3.8;;;;;;;-1.1;100.0;100700;;;;
2022/12/10 06:21:04;;;;;;;3.9;3.8;;;;;;;-1.1;100.0;100700;;;;
2022/12/10 06:22:01;;;;;;;3.9;3.8;;;;;;;-1.1;100.0;100700;;;;
2022/12/10 06:23:00;;;;;;;3.9;3.8;;;;;;;-1.1;100.0;100710;;;;
2022/12/10 06:24:00;;;;;;;3.9;3.8;;;;;;;-1.1;100.0;100710;;;;
2022/12/10 06:25:00;;;;;;;3.9;3.8;;;;;;;-1.0;100.0;100710;;;;
2022/12/10 06:26:05;;;;;;;3.9;3.8;;;;;;;-1.0;100.0;100710;;;;
2022/12/10 06:27:00;;;;;;;3.9;3.8;;;;;;;-1.0;100.0;100710;;;;
2022/12/10 06:28:00;;;;;;;3.9;3.8;;;;;;;-1.0;100.0;100710;;;;
2022/12/10 06:29:00;;;;;;;3.9;3.8;;;;;;;-0.9;100.0;100720;;;;
2022/12/10 06:31:00;;;;;;;3.9;3.8;;;;;;;-1.0;100.0;100720;;;;
2022/12/10 06:33:00;;;;;;;3.9;3.8;;;;;;;-1.0;100.0;100720;;;;
2022/12/10 06:35:01;;;;;;;4.1;4.0;;;;;;;-0.9;100.0;100720;;;;
2022/12/10 06:36:02;;;;;;;4.1;4.0;;;;;;;-0.9;100.0;100720;;;;
2022/12/10 06:37:00;;;;;;;4.1;4.0;;;;;;;-0.9;100.0;100720;;;;